.
WxDataArchive / Data Records for 2009-11-13
2009-11-12 November 2009 2009-11-14

Data Records for Friday, 13 November 2009

Time	Temp	Chill	HIndex	Humid	Dewpt	 Wind 	HiWind	WindDir	Rain 	Barom 
-----	----	-----	------	-----	-----	------	------	-------	-----	----- 
00:00	36.8	36.8	36.8	90	34.1	0	3	90	0.00	30.094 
00:05	36.8	36.8	36.8	90	34.1	1	2	90	0.00	30.094 
00:10	36.9	36.9	36.9	91	34.5	1	3	90	0.00	30.094 
00:15	37.0	37.0	37.0	91	34.6	1	3	90	0.00	30.093 
00:20	37.0	37.0	37.0	91	34.6	0	2	90	0.00	30.093 
00:25	36.9	36.9	36.9	91	34.5	1	2	90	0.00	30.093 
00:30	36.8	36.8	36.8	91	34.4	0	2	90	0.00	30.091 
00:35	36.6	36.6	36.6	91	34.2	0	2	90	0.00	30.091 
00:40	36.6	36.6	36.6	91	34.2	1	2	90	0.00	30.091 
00:45	36.6	36.6	36.6	91	34.2	0	2	90	0.00	30.087 
00:50	36.5	36.5	36.5	91	34.1	0	1	90	0.00	30.087 
00:55	36.3	36.3	36.3	91	33.9	1	2	90	0.00	30.087 
01:00	36.2	36.2	36.2	92	34.1	0	2	90	0.00	30.076 
01:05	36.3	36.3	36.3	92	34.2	1	2	90	0.00	30.076 
01:10	36.3	36.3	36.3	92	34.2	1	2	90	0.00	30.076 
01:15	36.2	36.2	36.2	92	34.1	0	3	90	0.00	30.069 
01:20	36.2	36.2	36.2	92	34.1	0	2	90	0.00	30.069 
01:25	36.2	36.2	36.2	92	34.1	0	0	---	0.00	30.069 
01:30	36.0	36.0	36.0	92	33.9	0	1	90	0.00	30.067 
01:35	35.9	35.9	35.9	92	33.8	0	1	90	0.00	30.067 
01:40	35.9	35.9	35.9	92	33.8	0	2	90	0.00	30.067 
01:45	35.9	35.9	35.9	93	34.1	0	3	90	0.00	30.065 
01:50	36.0	36.0	36.0	93	34.2	0	2	90	0.00	30.065 
01:55	36.0	36.0	36.0	93	34.2	0	2	90	0.00	30.065 
02:00	35.9	35.9	35.9	93	34.1	0	0	---	0.00	30.066 
02:05	35.6	35.6	35.6	93	33.8	0	0	---	0.00	30.066 
02:10	35.5	35.5	35.5	93	33.7	0	0	---	0.00	30.066 
02:15	35.2	35.2	35.2	93	33.4	0	0	---	0.00	30.067 
02:20	34.9	34.9	34.9	92	32.8	0	0	---	0.00	30.067 
02:25	34.7	34.7	34.7	92	32.6	0	0	---	0.00	30.067 
02:30	34.4	34.4	34.4	92	32.3	0	0	---	0.00	30.078 
02:35	34.1	34.1	34.1	92	32.0	0	0	---	0.00	30.078 
02:40	33.8	33.8	33.8	92	31.7	0	0	---	0.00	30.078 
02:45	33.7	33.7	33.7	92	31.6	0	0	---	0.00	30.085 
02:50	33.4	33.4	33.4	92	31.3	0	0	---	0.00	30.085 
02:55	33.2	33.2	33.2	92	31.1	0	0	---	0.00	30.085 
03:00	33.1	33.1	33.1	93	31.3	0	0	---	0.00	30.089 
03:05	32.9	32.9	32.9	92	30.8	0	0	---	0.00	30.089 
03:10	32.8	32.8	32.8	92	30.7	0	0	---	0.00	30.089 
03:15	32.5	32.5	32.5	93	30.7	0	0	---	0.00	30.084 
03:20	32.4	32.4	32.4	93	30.6	0	0	---	0.00	30.084 
03:25	32.2	32.2	32.2	93	30.4	0	0	---	0.00	30.084 
03:30	31.9	31.9	31.9	93	30.1	0	0	---	0.00	30.084 
03:35	31.8	31.8	31.8	93	30.0	0	0	---	0.00	30.084 
03:40	31.6	31.6	31.6	93	29.8	0	0	---	0.00	30.084 
03:45	31.5	31.5	31.5	93	29.7	0	0	---	0.00	30.073 
03:50	31.3	31.3	31.3	93	29.5	0	0	---	0.00	30.073 
03:55	31.3	31.3	31.3	93	29.5	0	0	---	0.00	30.073 
04:00	31.2	31.2	31.2	93	29.4	0	0	---	0.00	30.076 
04:05	31.2	31.2	31.2	93	29.4	0	0	---	0.00	30.076 
04:10	31.2	31.2	31.2	93	29.4	0	0	---	0.00	30.076 
04:15	31.0	31.0	31.0	93	29.2	0	0	---	0.00	30.077 
04:20	31.0	31.0	31.0	93	29.2	0	0	---	0.00	30.077 
04:25	30.9	30.9	30.9	93	29.1	0	0	---	0.00	30.077 
04:30	30.9	30.9	30.9	93	29.1	0	0	---	0.00	30.074 
04:35	30.9	30.9	30.9	94	29.4	0	1	90	0.00	30.074 
04:40	31.0	31.0	31.0	94	29.5	0	1	90	0.00	30.074 
04:45	31.6	31.6	31.6	94	30.1	0	1	90	0.00	30.060 
04:50	32.1	32.1	32.1	95	30.8	0	1	90	0.00	30.060 
04:55	32.4	32.4	32.4	94	30.9	0	0	---	0.00	30.060 
05:00	32.5	32.5	32.5	95	31.2	0	0	---	0.00	30.063 
05:05	32.7	32.7	32.7	95	31.4	0	2	90	0.00	30.063 
05:10	32.8	32.8	32.8	95	31.5	0	0	---	0.00	30.063 
05:15	32.7	32.7	32.7	94	31.2	0	0	---	0.00	30.072 
05:20	32.4	32.4	32.4	94	30.9	0	0	---	0.00	30.072 
05:25	32.2	32.2	32.2	94	30.7	0	0	---	0.00	30.072 
05:30	32.1	32.1	32.1	94	30.6	0	1	90	0.00	30.059 
05:35	32.1	32.1	32.1	94	30.6	0	0	---	0.00	30.059 
05:40	31.9	31.9	31.9	94	30.4	0	0	---	0.00	30.059 
05:45	31.6	31.6	31.6	94	30.1	0	0	---	0.00	30.058 
05:50	31.5	31.5	31.5	94	30.0	0	0	---	0.00	30.058 
05:55	31.3	31.3	31.3	94	29.8	0	0	---	0.00	30.058 
06:00	31.2	31.2	31.2	94	29.7	0	0	---	0.00	30.063 
06:05	31.0	31.0	31.0	94	29.5	0	0	---	0.00	30.063 
06:10	31.0	31.0	31.0	94	29.5	0	0	---	0.00	30.063 
06:15	30.7	30.7	30.7	94	29.2	0	0	---	0.00	30.077 
06:20	30.6	30.6	30.6	94	29.1	0	0	---	0.00	30.077 
06:25	30.4	30.4	30.4	94	28.9	0	0	---	0.00	30.077 
06:30	30.3	30.3	30.3	94	28.8	0	0	---	0.00	30.074 
06:35	30.1	30.1	30.1	94	28.6	0	0	---	0.00	30.074 
06:40	29.8	29.8	29.8	94	28.3	0	0	---	0.00	30.074 
06:45	29.7	29.7	29.7	94	28.2	0	0	---	0.00	30.080 
06:50	29.8	29.8	29.8	94	28.3	0	0	---	0.00	30.080 
06:55	29.7	29.7	29.7	94	28.2	0	0	---	0.00	30.080 
07:00	29.5	29.5	29.5	94	28.0	0	0	---	0.00	30.081 
07:05	29.5	29.5	29.5	94	28.0	0	0	---	0.00	30.081 
07:10	29.4	29.4	29.4	94	27.9	0	0	---	0.00	30.081 
07:15	29.3	29.3	29.3	94	27.8	0	0	---	0.00	30.087 
07:20	29.3	29.3	29.3	94	27.8	0	0	---	0.00	30.087 
07:25	29.1	29.1	29.1	94	27.6	0	0	---	0.00	30.087 
07:30	29.0	29.0	29.0	94	27.5	0	0	---	0.00	30.095 
07:35	29.0	29.0	29.0	94	27.5	0	0	---	0.00	30.095 
07:40	28.8	28.8	28.8	94	27.3	0	0	---	0.00	30.095 
07:45	28.8	28.8	28.8	95	27.6	0	0	---	0.00	30.096 
07:50	29.0	29.0	29.0	95	27.8	0	0	---	0.00	30.096 
07:55	29.0	29.0	29.0	95	27.8	0	0	---	0.00	30.096 
08:00	29.1	29.1	29.1	95	27.9	0	0	---	0.00	30.097 
08:05	29.3	29.3	29.3	95	28.0	0	0	---	0.00	30.097 
08:10	29.7	29.7	29.7	95	28.4	0	0	---	0.00	30.097 
08:15	30.4	30.4	30.4	96	29.4	0	0	---	0.00	30.093 
08:20	31.8	31.8	31.8	96	30.8	0	0	---	0.00	30.093 
08:25	33.2	33.2	33.2	96	32.2	0	0	---	0.00	30.093 
08:30	34.4	34.4	34.4	96	33.4	0	0	---	0.00	30.091 
08:35	34.9	34.9	34.9	96	33.9	0	1	0	0.00	30.091 
08:40	35.0	35.0	35.0	96	34.0	0	2	0	0.00	30.091 
08:45	35.0	35.0	35.0	95	33.7	1	2	22	0.00	30.087 
08:50	35.2	35.2	35.2	95	33.9	1	4	22	0.00	30.087 
08:55	35.5	35.5	35.5	95	34.2	1	4	90	0.00	30.087 
09:00	35.8	35.8	35.8	95	34.5	1	4	90	0.00	30.081 
09:05	36.3	36.3	36.3	94	34.7	2	4	112	0.00	30.081 
09:10	36.9	36.9	36.9	94	35.3	1	4	90	0.00	30.081 
09:15	37.5	37.5	37.5	92	35.4	2	3	90	0.00	30.075 
09:20	38.0	38.0	38.0	90	35.3	1	3	90	0.00	30.075 
09:25	38.6	38.6	38.6	89	35.6	1	3	90	0.00	30.075 
09:30	38.9	38.9	38.9	86	35.1	1	3	90	0.00	30.069 
09:35	39.2	39.2	39.2	85	35.1	1	3	90	0.00	30.069 
09:40	39.3	39.3	39.3	85	35.2	1	2	90	0.00	30.069 
09:45	39.6	39.6	39.6	85	35.5	1	3	90	0.00	30.076 
09:50	40.1	40.1	40.1	85	36.0	0	3	90	0.00	30.076 
09:55	40.5	40.5	40.5	82	35.4	1	3	112	0.00	30.076 
10:00	41.1	41.1	41.1	79	35.1	1	4	112	0.00	30.069 
10:05	41.5	41.5	41.5	78	35.2	1	3	112	0.00	30.069 
10:10	42.1	42.1	42.1	77	35.4	2	3	112	0.00	30.069 
10:15	42.5	42.5	42.5	76	35.5	2	4	112	0.00	30.061 
10:20	43.1	43.1	43.1	76	36.1	2	4	90	0.00	30.061 
10:25	43.3	43.3	43.3	75	35.9	2	4	112	0.00	30.061 
10:30	43.6	43.6	43.6	74	35.9	1	4	112	0.00	30.062 
10:35	43.9	43.9	43.9	74	36.2	1	3	112	0.00	30.062 
10:40	44.3	44.3	44.3	74	36.5	1	3	112	0.00	30.062 
10:45	44.8	44.8	44.8	73	36.7	0	2	112	0.00	30.062 
10:50	45.4	45.4	45.4	72	36.9	1	3	135	0.00	30.062 
10:55	45.8	45.8	45.8	70	36.6	1	2	68	0.00	30.062 
11:00	46.2	46.2	46.2	69	36.6	1	2	135	0.00	30.055 
11:05	46.7	46.7	46.7	68	36.7	1	4	90	0.00	30.055 
11:10	47.1	47.1	47.1	65	35.9	1	3	90	0.00	30.055 
11:15	47.7	47.7	47.7	64	36.1	1	3	135	0.00	30.039 
11:20	48.2	48.2	48.2	64	36.6	1	4	90	0.00	30.039 
11:25	48.6	48.6	48.6	60	35.3	1	3	135	0.00	30.039 
11:30	49.2	49.2	49.2	60	35.9	0	3	68	0.00	30.023 
11:35	49.8	49.8	49.8	58	35.6	0	2	68	0.00	30.023 
11:40	50.4	50.4	50.4	57	35.7	1	3	112	0.00	30.023 
11:45	50.7	50.7	50.7	56	35.6	1	5	90	0.00	30.016 
11:50	50.8	50.8	50.8	56	35.7	1	3	90	0.00	30.016 
11:55	51.1	51.1	51.1	55	35.5	1	3	112	0.00	30.016 
12:00	51.4	51.4	51.4	55	35.8	1	3	112	0.00	30.017 
12:05	51.9	51.9	51.9	56	36.7	0	4	112	0.00	30.017 
12:10	52.2	52.2	52.2	53	35.6	0	3	112	0.00	30.017 
12:15	52.5	52.5	52.5	54	36.3	0	3	135	0.00	30.011 
12:20	52.8	52.8	52.8	53	36.1	1	3	112	0.00	30.011 
12:25	53.1	53.1	53.1	51	35.5	1	2	112	0.00	30.011 
12:30	53.5	53.5	53.5	52	36.3	0	2	112	0.00	29.997 
12:35	53.9	53.9	53.9	52	36.7	0	2	112	0.00	29.997 
12:40	54.2	54.2	54.2	50	36.0	1	4	112	0.00	29.997 
12:45	54.4	54.4	54.4	49	35.6	1	4	112	0.00	29.988 
12:50	54.7	54.7	54.7	50	36.4	0	2	135	0.00	29.988 
12:55	55.0	55.0	55.0	52	37.7	0	2	292	0.00	29.988 
13:00	55.4	55.4	55.4	49	36.6	1	3	45	0.00	29.977 
13:05	55.7	55.7	55.7	49	36.8	0	2	90	0.00	29.977 
13:10	55.9	55.9	55.9	49	37.0	0	2	90	0.00	29.977 
13:15	56.0	56.0	56.0	47	36.1	0	3	90	0.00	29.972 
13:20	56.3	56.3	56.3	47	36.3	1	3	112	0.00	29.972 
13:25	56.6	56.6	56.6	47	36.6	0	2	112	0.00	29.972 
13:30	56.9	56.9	56.9	46	36.3	0	2	112	0.00	29.965 
13:35	57.2	57.2	57.2	47	37.2	0	3	112	0.00	29.965 
13:40	57.3	57.3	57.3	47	37.2	0	3	135	0.00	29.965 
13:45	57.5	57.5	57.5	45	36.3	1	5	135	0.00	29.956 
13:50	57.6	57.6	57.6	46	37.0	0	3	158	0.00	29.956 
13:55	57.8	57.8	57.8	46	37.2	1	4	90	0.00	29.956 
14:00	57.8	57.8	57.8	46	37.2	1	5	68	0.00	29.946 
14:05	58.0	58.0	58.0	46	37.3	1	2	135	0.00	29.946 
14:10	58.0	58.0	58.0	48	38.4	1	3	135	0.00	29.946 
14:15	58.1	58.1	58.1	48	38.5	1	4	112	0.00	29.952 
14:20	58.1	58.1	58.1	48	38.5	1	3	135	0.00	29.952 
14:25	58.1	58.1	58.1	48	38.5	1	3	135	0.00	29.952 
14:30	58.1	58.1	58.1	49	39.0	1	3	68	0.00	29.946 
14:35	58.3	58.3	58.3	50	39.7	1	3	135	0.00	29.946 
14:40	58.4	58.4	58.4	51	40.3	0	3	0	0.00	29.946 
14:45	58.4	58.4	58.4	51	40.3	1	3	248	0.00	29.948 
14:50	58.6	58.6	58.6	49	39.5	1	4	90	0.00	29.948 
14:55	58.6	58.6	58.6	50	40.0	1	3	135	0.00	29.948 
15:00	58.7	58.7	58.7	49	39.6	0	2	68	0.00	29.949 
15:05	58.6	58.6	58.6	50	40.0	0	2	68	0.00	29.949 
15:10	58.6	58.6	58.6	50	40.0	0	1	68	0.00	29.949 
15:15	58.6	58.6	58.6	50	40.0	1	3	112	0.00	29.947 
15:20	58.4	58.4	58.4	50	39.8	1	4	68	0.00	29.947 
15:25	58.3	58.3	58.3	51	40.3	0	1	68	0.00	29.947 
15:30	58.1	58.1	58.1	51	40.1	0	2	68	0.00	29.941 
15:35	58.1	58.1	58.1	51	40.1	0	2	68	0.00	29.941 
15:40	58.1	58.1	58.1	52	40.6	0	1	68	0.00	29.941 
15:45	58.1	58.1	58.1	51	40.1	0	2	68	0.00	29.941 
15:50	58.1	58.1	58.1	51	40.1	0	2	112	0.00	29.941 
15:55	58.3	58.3	58.3	50	39.7	0	2	112	0.00	29.941 
16:00	58.3	58.3	58.3	52	40.8	0	1	112	0.00	29.941 
16:05	58.3	58.3	58.3	51	40.3	0	2	112	0.00	29.941 
16:10	58.3	58.3	58.3	52	40.8	0	2	112	0.00	29.941 
16:15	58.1	58.1	58.1	52	40.6	0	1	112	0.00	29.948 
16:20	58.0	58.0	58.0	53	41.0	0	1	112	0.00	29.948 
16:25	57.6	57.6	57.6	53	40.6	0	1	112	0.00	29.948 
16:30	57.5	57.5	57.5	54	41.0	0	0	---	0.00	29.937 
16:35	57.2	57.2	57.2	54	40.7	0	0	---	0.00	29.937 
16:40	56.9	56.9	56.9	55	40.9	0	1	112	0.00	29.937 
16:45	56.6	56.6	56.6	55	40.6	0	0	---	0.00	29.938 
16:50	56.3	56.3	56.3	56	40.8	0	0	---	0.00	29.938 
16:55	56.0	56.0	56.0	56	40.5	0	0	---	0.00	29.938 
17:00	55.9	55.9	55.9	57	40.9	0	0	---	0.00	29.942 
17:05	55.4	55.4	55.4	58	40.9	0	1	112	0.00	29.942 
17:10	55.0	55.0	55.0	59	40.9	0	1	112	0.00	29.942 
17:15	54.7	54.7	54.7	59	40.7	0	1	112	0.00	29.934 
17:20	54.7	54.7	54.7	60	41.1	0	1	112	0.00	29.934 
17:25	54.5	54.5	54.5	60	40.9	0	1	112	0.00	29.934 
17:30	54.4	54.4	54.4	60	40.8	0	0	---	0.00	29.942 
17:35	54.1	54.1	54.1	61	41.0	0	0	---	0.00	29.942 
17:40	53.8	53.8	53.8	61	40.7	0	0	---	0.00	29.942 
17:45	53.3	53.3	53.3	62	40.6	0	0	---	0.00	29.940 
17:50	52.9	52.9	52.9	63	40.7	0	0	---	0.00	29.940 
17:55	52.6	52.6	52.6	64	40.8	0	0	---	0.00	29.940 
18:00	52.2	52.2	52.2	65	40.8	0	0	---	0.00	29.939 
18:05	51.9	51.9	51.9	65	40.5	0	0	---	0.00	29.939 
18:10	51.4	51.4	51.4	66	40.4	0	0	---	0.00	29.939 
18:15	51.1	51.1	51.1	67	40.5	0	0	---	0.00	29.941 
18:20	50.7	50.7	50.7	68	40.5	0	0	---	0.00	29.941 
18:25	50.4	50.4	50.4	68	40.2	0	0	---	0.00	29.941 
18:30	49.9	49.9	49.9	69	40.1	0	0	---	0.00	29.944 
18:35	49.8	49.8	49.8	70	40.4	0	0	---	0.00	29.944 
18:40	49.5	49.5	49.5	71	40.5	0	0	---	0.00	29.944 
18:45	49.2	49.2	49.2	71	40.2	0	0	---	0.00	29.945 
18:50	48.9	48.9	48.9	72	40.3	0	0	---	0.00	29.945 
18:55	48.9	48.9	48.9	72	40.3	0	0	---	0.00	29.945 
19:00	48.9	48.9	48.9	72	40.3	0	0	---	0.00	29.946 
19:05	49.1	49.1	49.1	72	40.5	0	0	---	0.00	29.946 
19:10	49.2	49.2	49.2	71	40.2	0	0	---	0.00	29.946 
19:15	49.2	49.2	49.2	71	40.2	0	0	---	0.00	29.945 
19:20	49.2	49.2	49.2	71	40.2	0	0	---	0.00	29.945 
19:25	49.2	49.2	49.2	71	40.2	0	0	---	0.00	29.945 
19:30	49.2	49.2	49.2	71	40.2	0	0	---	0.00	29.946 
19:35	49.2	49.2	49.2	71	40.2	0	1	112	0.00	29.946 
19:40	49.4	49.4	49.4	71	40.4	0	1	112	0.00	29.946 
19:45	49.4	49.4	49.4	71	40.4	0	1	112	0.00	29.944 
19:50	49.5	49.5	49.5	70	40.1	0	0	---	0.00	29.944 
19:55	49.6	49.6	49.6	70	40.2	0	1	112	0.00	29.944 
20:00	49.8	49.8	49.8	70	40.4	0	1	112	0.00	29.940 
20:05	49.9	49.9	49.9	70	40.5	0	1	112	0.00	29.940 
20:10	49.9	49.9	49.9	69	40.1	0	0	---	0.00	29.940 
20:15	49.9	49.9	49.9	69	40.1	0	0	---	0.00	29.935 
20:20	49.9	49.9	49.9	69	40.1	0	0	---	0.00	29.935 
20:25	49.8	49.8	49.8	70	40.4	0	0	---	0.00	29.935 
20:30	49.5	49.5	49.5	70	40.1	0	0	---	0.00	29.938 
20:35	49.1	49.1	49.1	71	40.1	0	0	---	0.00	29.938 
20:40	48.5	48.5	48.5	72	39.9	0	0	---	0.00	29.938 
20:45	47.9	47.9	47.9	74	40.0	0	0	---	0.00	29.941 
20:50	47.4	47.4	47.4	75	39.9	0	0	---	0.00	29.941 
20:55	46.8	46.8	46.8	77	40.0	0	0	---	0.00	29.941 
21:00	46.5	46.5	46.5	77	39.7	0	0	---	0.00	29.942 
21:05	46.4	46.4	46.4	77	39.6	0	0	---	0.00	29.942 
21:10	46.2	46.2	46.2	77	39.4	0	0	---	0.00	29.942 
21:15	46.2	46.2	46.2	78	39.7	0	0	---	0.00	29.926 
21:20	46.2	46.2	46.2	78	39.7	0	1	112	0.00	29.926 
21:25	46.4	46.4	46.4	78	39.9	0	1	112	0.00	29.926 
21:30	46.4	46.4	46.4	78	39.9	0	0	---	0.00	29.927 
21:35	46.5	46.5	46.5	77	39.7	0	0	---	0.00	29.927 
21:40	46.5	46.5	46.5	77	39.7	0	1	112	0.00	29.927 
21:45	46.7	46.7	46.7	77	39.9	0	0	---	0.00	29.924 
21:50	46.7	46.7	46.7	76	39.5	0	0	---	0.00	29.924 
21:55	46.4	46.4	46.4	76	39.3	0	0	---	0.00	29.924 
22:00	45.8	45.8	45.8	77	39.0	0	0	---	0.00	29.923 
22:05	45.2	45.2	45.2	78	38.8	0	0	---	0.00	29.923 
22:10	44.8	44.8	44.8	79	38.7	0	0	---	0.00	29.923 
22:15	44.3	44.3	44.3	79	38.2	0	0	---	0.00	29.925 
22:20	43.8	43.8	43.8	81	38.4	0	0	---	0.00	29.925 
22:25	43.3	43.3	43.3	81	37.9	0	0	---	0.00	29.925 
22:30	42.9	42.9	42.9	82	37.8	0	0	---	0.00	29.933 
22:35	42.6	42.6	42.6	84	38.1	0	0	---	0.00	29.933 
22:40	42.5	42.5	42.5	86	38.6	0	0	---	0.00	29.933 
22:45	42.9	42.9	42.9	86	39.0	0	1	112	0.00	29.921 
22:50	43.5	43.5	43.5	85	39.3	0	0	---	0.00	29.921 
22:55	43.9	43.9	43.9	84	39.4	0	1	112	0.00	29.921 
23:00	44.2	44.2	44.2	84	39.7	0	0	---	0.00	29.920 
23:05	44.3	44.3	44.3	83	39.5	0	0	---	0.00	29.920 
23:10	44.2	44.2	44.2	83	39.4	0	0	---	0.00	29.920 
23:15	43.9	43.9	43.9	83	39.1	0	0	---	0.00	29.913 
23:20	43.6	43.6	43.6	83	38.8	0	0	---	0.00	29.913 
23:25	43.2	43.2	43.2	83	38.4	0	0	---	0.00	29.913 
23:30	42.9	42.9	42.9	83	38.1	0	0	---	0.00	29.905 
23:35	42.6	42.6	42.6	84	38.1	0	0	---	0.00	29.905 
23:40	42.3	42.3	42.3	84	37.8	0	0	---	0.00	29.905 
23:45	42.2	42.2	42.2	86	38.3	0	0	---	0.00	29.906 
23:50	42.3	42.3	42.3	86	38.4	0	0	---	0.00	29.906 
23:55	42.5	42.5	42.5	86	38.6	0	0	---	0.00	29.906 

CoCoRaHS
IN-AL-39
A2 Web Hosting
Creative Commons License
GoDaddy
search engine by freefind advanced

loaded 2018-11-21 01:13:10 • last modified 2010-11-18 10:43:29
Privacy PolicyDisclaimer
• wx.awcolley.com is powered by PmWiki v.2002016 •
• all content (unless otherwise noted) © 2018 A W Colley